Grand Forks, ND (58201)

6:24 AM CDT on September 02, 2015 (GMT -0500)
APRSWXNET | | Change Station
CLOSE
Current Station
Personal Weather Station
Location: Grand Forks Air Force Base, ND
Elevation: 846 ft
Nearby Weather Stations

Elev 846 ft 47.89 °N, 97.16 °W | Updated 17 minutes ago

Clear
Clear
64 °F
Feels Like 64 °F
N
1
Wind Variable Wind from SSE
Gusts 3.0 mph

Today
High -- | Low -- °F
--% Chance of Precip.
Yesterday
High -- | Low -- °F
Precip. -- in
6:47 AM 8:07 PM
Waning Gibbous, 81% visible
Pressure 29.82 in
Visibility 0.5 miles
Clouds Overcast 200 ft
Dew Point 63 °F
Humidity 97%
Rainfall in
Snow Depth Not available.
UV 0 out of 12
Pollen 11.00 out of 12
Air Quality Not available.
Flu Activity Not available.
SPECI KGFK 021120Z 16006KT 1/2SM R35L/3000VP6000FT BR OVC002 18/18 A2982 RMK AO2 SFC VIS 1
Pressure 29.82 in
Visibility 0.5 miles
Clouds Overcast 200 ft
Dew Point 63 °F
Humidity 97%
Rainfall in
Snow Depth Not available.
UV 0 out of 12
Pollen 11.00 out of 12
Air Quality Not available.
Flu Activity Not available.
SPECI KGFK 021120Z 16006KT 1/2SM R35L/3000VP6000FT BR OVC002 18/18 A2982 RMK AO2 SFC VIS 1

10-Day Weather Forecast

×

Almanac

Astronomy

Sep. 02, 2015 Rise Set
Actual Time
Civil Twilight
Nautical Twilight
Astronomical Twilight
Moon
Length of Visible Light
Length of Day
Tomorrow will be .
, % of the Moon is Illuminated

Today's Extremes

State Highs State Lows

Community

WunderPhotos

Upload Photos

1,851,736 photos uploaded!

WunderBlogs® & News

Nearby

Air Quality

  Air Quality AQ Index Pollutant
Not available.

Snow Depth

Station Depth Elevation

Earthquake Activity

City Distance Mag. Time & Date
Minimum magnitude displayed is 2.5.

Coastal Water Temperatures

Place Temperature

Stations

Nearby Weather Stations

Station Location Temp. Windchill Dew Point Humidity Wind Precip. Elev Updated Type